createdAt,value
2018-05-01T00:01:45.264Z,14.10
2018-05-01T00:04:14.331Z,14.10
2018-05-01T00:06:42.559Z,14.10
2018-05-01T00:09:10.786Z,14.20
2018-05-01T00:11:39.790Z,14.20
2018-05-01T00:14:08.747Z,14.10
2018-05-01T00:16:36.951Z,14.10
2018-05-01T00:19:05.152Z,14.10
2018-05-01T00:21:33.383Z,14.10
2018-05-01T00:24:01.619Z,14.10
2018-05-01T00:26:29.944Z,14.10
2018-05-01T00:28:58.179Z,14.10
2018-05-01T00:31:26.436Z,13.90
2018-05-01T00:33:55.031Z,14.00
2018-05-01T00:36:23.214Z,13.80
2018-05-01T00:38:51.469Z,13.70
2018-05-01T00:41:20.526Z,13.70
2018-05-01T00:43:48.839Z,13.50
2018-05-01T00:46:17.202Z,13.60
2018-05-01T00:48:46.611Z,13.60
2018-05-01T00:51:15.583Z,13.50
2018-05-01T00:53:43.777Z,13.50
2018-05-01T00:56:12.872Z,13.40
2018-05-01T00:58:41.831Z,13.60
2018-05-01T01:01:10.021Z,13.50
2018-05-01T01:03:38.284Z,13.60
2018-05-01T01:06:08.215Z,13.50
2018-05-01T01:08:36.395Z,13.50
2018-05-01T01:11:05.563Z,13.30
2018-05-01T01:13:33.759Z,13.30
2018-05-01T01:16:02.032Z,13.30
2018-05-01T01:18:30.300Z,13.30
2018-05-01T01:20:58.499Z,13.40
2018-05-01T01:23:26.886Z,13.40
2018-05-01T01:25:55.867Z,13.40
2018-05-01T01:28:24.828Z,13.60
2018-05-01T01:30:53.158Z,13.50
2018-05-01T01:33:21.365Z,13.60
2018-05-01T01:35:49.048Z,13.60
2018-05-01T01:38:16.803Z,13.40
2018-05-01T01:40:44.625Z,13.40
2018-05-01T01:43:12.725Z,13.50
2018-05-01T01:45:40.419Z,13.40
2018-05-01T01:48:08.131Z,13.40
2018-05-01T01:50:35.836Z,13.30
2018-05-01T01:53:03.527Z,13.30
2018-05-01T01:55:32.011Z,13.30
2018-05-01T01:58:00.476Z,13.40
2018-05-01T02:00:28.177Z,13.40
2018-05-01T02:02:57.123Z,13.20
2018-05-01T02:05:24.820Z,13.00
2018-05-01T02:07:53.284Z,13.10
2018-05-01T02:10:21.023Z,13.10
2018-05-01T02:12:48.718Z,13.10
2018-05-01T02:15:17.189Z,13.10
2018-05-01T02:17:44.905Z,13.10
2018-05-01T02:20:12.704Z,13.10
2018-05-01T02:22:40.404Z,13.10
2018-05-01T02:25:08.143Z,13.10
2018-05-01T02:27:35.894Z,13.00
2018-05-01T02:30:03.609Z,13.00
2018-05-01T02:32:31.357Z,13.10
2018-05-01T02:34:59.819Z,13.00
2018-05-01T02:37:27.530Z,12.90
2018-05-01T02:39:55.232Z,12.80
2018-05-01T02:42:22.938Z,12.90
2018-05-01T02:44:52.194Z,12.80
2018-05-01T02:47:20.108Z,12.90
2018-05-01T02:49:47.807Z,12.80
2018-05-01T02:52:15.531Z,12.80
2018-05-01T02:54:43.255Z,12.70
2018-05-01T02:57:11.001Z,12.70
2018-05-01T02:59:39.528Z,12.80
2018-05-01T03:02:07.996Z,12.80
2018-05-01T03:04:36.456Z,12.80
2018-05-01T03:07:04.295Z,12.70
2018-05-01T03:09:32.007Z,12.60
2018-05-01T03:12:00.480Z,12.70
2018-05-01T03:14:28.235Z,12.60
2018-05-01T03:16:55.935Z,12.70
2018-05-01T03:19:23.687Z,12.70
2018-05-01T03:21:52.171Z,12.80
2018-05-01T03:24:20.631Z,12.90
2018-05-01T03:26:48.340Z,12.90
2018-05-01T03:29:16.087Z,12.90
2018-05-01T03:31:44.539Z,12.90
2018-05-01T03:34:12.263Z,12.90
2018-05-01T03:36:39.983Z,12.80
2018-05-01T03:39:08.658Z,12.70
2018-05-01T03:41:36.203Z,12.70
2018-05-01T03:44:03.923Z,12.70
2018-05-01T03:46:31.631Z,12.80
2018-05-01T03:48:59.366Z,12.70
2018-05-01T03:51:27.676Z,12.60
2018-05-01T03:53:55.522Z,12.60
2018-05-01T03:56:23.249Z,12.60
2018-05-01T03:58:50.971Z,12.70
2018-05-01T04:01:18.685Z,12.70
2018-05-01T04:03:46.388Z,12.60
2018-05-01T04:06:14.101Z,12.60
2018-05-01T04:08:41.795Z,12.60
2018-05-01T04:11:09.503Z,12.50
2018-05-01T04:13:38.068Z,12.50
2018-05-01T04:16:05.800Z,12.50
2018-05-01T04:18:33.491Z,12.30
2018-05-01T04:21:01.196Z,12.40
2018-05-01T04:23:28.925Z,12.30
2018-05-01T04:25:56.639Z,12.20
2018-05-01T04:28:24.336Z,12.30
2018-05-01T04:30:52.911Z,12.20
2018-05-01T04:33:20.811Z,12.10
2018-05-01T04:35:49.275Z,12.10
2018-05-01T04:38:17.191Z,12.10
2018-05-01T04:40:44.937Z,12.10
2018-05-01T04:43:13.403Z,12.20
2018-05-01T04:45:41.915Z,12.10
2018-05-01T04:48:09.623Z,12.10
2018-05-01T04:50:37.318Z,12.10
2018-05-01T04:53:05.819Z,12.00
2018-05-01T04:55:33.834Z,11.90
2018-05-01T04:58:01.550Z,11.90
2018-05-01T05:00:29.261Z,11.90
2018-05-01T05:02:56.972Z,11.90
2018-05-01T05:05:25.425Z,11.90
2018-05-01T05:07:53.157Z,11.90
2018-05-01T05:10:20.843Z,11.90
2018-05-01T05:12:48.552Z,11.90
2018-05-01T05:15:18.152Z,11.80
2018-05-01T05:17:45.851Z,11.70
2018-05-01T05:20:13.559Z,11.90
2018-05-01T05:22:42.039Z,11.80
2018-05-01T05:25:10.501Z,11.80
2018-05-01T05:27:38.200Z,11.80
2018-05-01T05:30:05.931Z,11.70
2018-05-01T05:32:33.631Z,11.70
2018-05-01T05:35:01.339Z,11.70
2018-05-01T05:37:29.060Z,11.60
2018-05-01T05:39:56.754Z,11.60
2018-05-01T05:42:24.477Z,11.60
2018-05-01T05:44:52.962Z,11.50
2018-05-01T05:47:21.418Z,11.50
2018-05-01T05:49:49.891Z,11.60
2018-05-01T05:52:17.812Z,11.60
2018-05-01T05:54:45.531Z,11.50
2018-05-01T05:57:14.159Z,11.50
2018-05-01T05:59:41.951Z,11.50
2018-05-01T06:02:09.670Z,11.50
2018-05-01T06:04:38.104Z,11.40
2018-05-01T06:07:05.922Z,11.40
2018-05-01T06:09:33.619Z,11.50
2018-05-01T06:12:01.333Z,11.50
2018-05-01T06:14:29.827Z,11.50
2018-05-01T06:16:58.411Z,11.50
2018-05-01T06:19:26.111Z,11.50
2018-05-01T06:21:53.918Z,11.50
2018-05-01T06:24:21.570Z,11.60
2018-05-01T06:26:50.051Z,11.60
2018-05-01T06:29:18.548Z,11.60
2018-05-01T06:31:47.012Z,11.60
2018-05-01T06:34:14.744Z,11.60
2018-05-01T06:36:42.459Z,11.50
2018-05-01T06:39:10.170Z,11.60
2018-05-01T06:41:37.867Z,11.70
2018-05-01T06:44:06.415Z,11.80
2018-05-01T06:46:34.150Z,11.80
2018-05-01T06:49:02.638Z,11.70
2018-05-01T06:51:30.431Z,11.70
2018-05-01T06:53:58.144Z,11.80
2018-05-01T06:56:25.843Z,12.00
2018-05-01T06:58:53.581Z,11.90
2018-05-01T07:01:22.050Z,12.10
2018-05-01T07:03:50.523Z,12.00
2018-05-01T07:06:18.246Z,12.00
2018-05-01T07:08:45.963Z,11.90
2018-05-01T07:11:14.539Z,11.80
2018-05-01T07:13:42.201Z,11.80
2018-05-01T07:16:09.914Z,11.90
2018-05-01T07:18:37.623Z,11.90
2018-05-01T07:21:06.189Z,12.10
2018-05-01T07:23:34.358Z,12.10
2018-05-01T07:26:02.617Z,12.00
2018-05-01T07:28:30.363Z,12.10
2018-05-01T07:30:58.104Z,12.10
2018-05-01T07:33:25.848Z,12.00
2018-05-01T07:35:54.486Z,12.10
2018-05-01T07:38:22.187Z,12.10
2018-05-01T07:40:49.883Z,12.10
2018-05-01T07:43:17.688Z,12.00
2018-05-01T07:45:45.407Z,12.30
2018-05-01T07:48:13.307Z,12.60
2018-05-01T07:50:41.936Z,12.60
2018-05-01T07:53:09.610Z,12.60
2018-05-01T07:55:38.088Z,13.20
2018-05-01T07:58:06.599Z,12.90
2018-05-01T08:00:35.711Z,12.90
2018-05-01T08:03:03.850Z,12.70
2018-05-01T08:05:32.315Z,12.20
2018-05-01T08:08:00.786Z,12.00
2018-05-01T08:10:28.555Z,12.00
2018-05-01T08:12:57.039Z,11.80
2018-05-01T08:15:25.525Z,11.70
2018-05-01T08:17:54.018Z,11.60
2018-05-01T08:20:21.735Z,11.50
2018-05-01T08:22:49.465Z,11.60
2018-05-01T08:25:17.198Z,11.90
2018-05-01T08:27:45.677Z,12.50
2018-05-01T08:30:14.160Z,12.60
2018-05-01T08:32:42.775Z,13.60
2018-05-01T08:35:10.848Z,13.60
2018-05-01T08:37:38.566Z,14.10
2018-05-01T08:40:06.274Z,14.30
2018-05-01T08:42:33.991Z,15.10
2018-05-01T08:45:01.691Z,15.00
2018-05-01T08:47:30.090Z,14.40
2018-05-01T08:49:57.794Z,13.90
2018-05-01T08:52:26.271Z,12.90
2018-05-01T08:54:54.043Z,12.90
2018-05-01T08:57:22.553Z,12.80
2018-05-01T08:59:50.246Z,12.70
2018-05-01T09:02:18.003Z,12.60
2018-05-01T09:04:45.706Z,12.70
2018-05-01T09:07:13.403Z,12.90
2018-05-01T09:09:41.342Z,13.30
2018-05-01T09:12:09.061Z,13.50
2018-05-01T09:14:36.824Z,13.90
2018-05-01T09:17:06.986Z,14.00
2018-05-01T09:19:34.849Z,13.80
2018-05-01T09:22:02.583Z,13.60
2018-05-01T09:24:30.307Z,13.30
2018-05-01T09:26:58.779Z,13.00
2018-05-01T09:29:27.256Z,12.90
2018-05-01T09:31:55.775Z,12.70
2018-05-01T09:34:23.485Z,12.70
2018-05-01T09:36:51.197Z,12.60
2018-05-01T09:39:19.075Z,12.90
2018-05-01T09:41:46.854Z,13.20
2018-05-01T09:44:14.688Z,12.90
2018-05-01T09:46:43.200Z,12.90
2018-05-01T09:49:10.886Z,12.90
2018-05-01T09:51:38.605Z,12.90
2018-05-01T09:54:06.847Z,13.10
2018-05-01T09:56:35.035Z,13.00
2018-05-01T09:59:03.227Z,13.20
2018-05-01T10:01:31.466Z,13.30
2018-05-01T10:03:59.726Z,13.30
2018-05-01T10:06:28.000Z,13.20
2018-05-01T10:08:56.315Z,13.50
2018-05-01T10:11:24.567Z,13.60
2018-05-01T10:13:52.760Z,13.70
2018-05-01T10:16:21.002Z,13.70
2018-05-01T10:18:49.999Z,13.50
2018-05-01T10:21:18.967Z,13.20
2018-05-01T10:23:47.211Z,13.20
2018-05-01T10:26:16.200Z,13.60
2018-05-01T10:28:44.561Z,13.60
2018-05-01T10:31:13.679Z,13.40
2018-05-01T10:33:41.871Z,13.40
2018-05-01T10:36:10.135Z,13.40
2018-05-01T10:38:38.556Z,13.40
2018-05-01T10:41:06.723Z,13.50
2018-05-01T10:43:35.567Z,13.50
2018-05-01T10:46:03.831Z,13.50
2018-05-01T10:48:32.079Z,13.30
2018-05-01T10:51:01.092Z,13.40
2018-05-01T10:53:30.095Z,13.30
2018-05-01T10:55:58.284Z,13.30
2018-05-01T10:58:26.475Z,13.30
2018-05-01T11:00:54.703Z,13.50
2018-05-01T11:03:22.938Z,13.60
2018-05-01T11:05:51.336Z,13.60
2018-05-01T11:08:19.699Z,13.60
2018-05-01T11:10:48.586Z,13.80
2018-05-01T11:13:16.795Z,13.80
2018-05-01T11:15:45.788Z,13.80
2018-05-01T11:18:14.780Z,13.90
2018-05-01T11:20:43.832Z,13.40
2018-05-01T11:23:12.121Z,13.40
2018-05-01T11:25:45.301Z,13.70
2018-05-01T11:28:13.619Z,13.90
2018-05-01T11:30:42.603Z,13.80
2018-05-01T11:33:10.806Z,13.80
2018-05-01T11:35:40.008Z,13.90
2018-05-01T11:38:08.203Z,13.90
2018-05-01T11:40:36.461Z,13.90
2018-05-01T11:43:05.429Z,14.70
2018-05-01T11:45:35.271Z,15.40
2018-05-01T11:48:03.454Z,15.40
2018-05-01T11:50:31.717Z,15.60
2018-05-01T11:52:59.895Z,15.20
2018-05-01T11:55:28.087Z,14.80
2018-05-01T11:57:56.306Z,14.70
2018-05-01T12:00:24.512Z,14.00
2018-05-01T12:02:52.735Z,14.00
2018-05-01T12:05:20.956Z,14.80
2018-05-01T12:07:49.177Z,15.10
2018-05-01T12:10:17.522Z,15.30
2018-05-01T12:12:45.816Z,14.90
2018-05-01T12:15:14.058Z,14.90
2018-05-01T12:17:43.017Z,15.20
2018-05-01T12:20:11.309Z,15.20
2018-05-01T12:22:40.290Z,15.40
2018-05-01T12:25:08.471Z,15.40
2018-05-01T12:27:36.839Z,15.70
2018-05-01T12:30:05.083Z,15.50
2018-05-01T12:32:33.327Z,15.90
2018-05-01T12:35:01.628Z,15.60
2018-05-01T12:37:29.820Z,15.40
2018-05-01T12:39:58.013Z,15.60
2018-05-01T12:42:26.307Z,15.70
2018-05-01T12:44:54.499Z,15.90
2018-05-01T12:47:24.347Z,15.20
2018-05-01T12:49:52.568Z,15.20
2018-05-01T12:52:20.808Z,15.30
2018-05-01T12:54:49.001Z,15.70
2018-05-01T12:57:18.003Z,15.80
2018-05-01T12:59:46.199Z,15.80
2018-05-01T13:02:15.159Z,16.70
2018-05-01T13:04:43.464Z,16.70
2018-05-01T13:07:12.475Z,18.20
2018-05-01T13:09:41.428Z,19.00
2018-05-01T13:12:09.712Z,19.00
2018-05-01T13:14:37.903Z,19.20
2018-05-01T13:17:06.967Z,21.90
2018-05-01T13:19:35.246Z,21.80
2018-05-01T13:22:03.479Z,22.80
2018-05-01T13:24:31.726Z,22.80
2018-05-01T13:27:00.725Z,21.60
2018-05-01T13:29:29.726Z,23.20
2018-05-01T13:31:57.994Z,23.20
2018-05-01T13:34:27.151Z,23.10
2018-05-01T13:36:55.375Z,23.10
2018-05-01T13:39:23.703Z,24.10
2018-05-01T13:41:52.723Z,25.70
2018-05-01T13:44:21.736Z,23.30
2018-05-01T13:46:50.682Z,23.80
2018-05-01T13:49:20.289Z,23.90
2018-05-01T13:51:48.694Z,23.70
2018-05-01T13:54:17.717Z,24.10
2018-05-01T13:56:46.001Z,24.10
2018-05-01T13:59:14.241Z,24.80
2018-05-01T14:01:42.416Z,25.10
2018-05-01T14:04:10.731Z,24.90
2018-05-01T14:06:39.042Z,26.10
2018-05-01T14:09:08.012Z,23.30
2018-05-01T14:11:36.395Z,23.30
2018-05-01T14:14:04.599Z,23.90
2018-05-01T14:16:32.795Z,25.30
2018-05-01T14:19:01.797Z,26.80
2018-05-01T14:21:30.799Z,25.70
2018-05-01T14:23:59.024Z,25.70
2018-05-01T14:26:27.231Z,25.70
2018-05-01T14:28:55.760Z,23.90
2018-05-01T14:31:24.017Z,23.20
2018-05-01T14:33:52.295Z,25.20
2018-05-01T14:36:20.491Z,26.40
2018-05-01T14:38:48.683Z,26.50
2018-05-01T14:41:16.982Z,25.50
2018-05-01T14:43:45.175Z,24.90
2018-05-01T14:46:14.239Z,21.90
2018-05-01T14:48:42.528Z,21.90
2018-05-01T14:51:12.019Z,21.30
2018-05-01T14:53:40.286Z,20.20
2018-05-01T14:56:08.471Z,20.10
2018-05-01T14:58:36.687Z,19.70
2018-05-01T15:01:04.934Z,19.30
2018-05-01T15:03:33.159Z,18.90
2018-05-01T15:06:01.407Z,17.80
2018-05-01T15:08:30.364Z,17.60
2018-05-01T15:10:58.916Z,17.50
2018-05-01T15:13:27.109Z,17.90
2018-05-01T15:15:55.295Z,17.90
2018-05-01T15:18:23.569Z,18.10
2018-05-01T15:20:51.792Z,17.80
2018-05-01T15:23:20.000Z,18.30
2018-05-01T15:25:48.265Z,18.10
2018-05-01T15:28:16.483Z,17.60
2018-05-01T15:30:44.675Z,17.50
2018-05-01T15:33:15.307Z,17.90
2018-05-01T15:35:44.309Z,17.50
2018-05-01T15:38:13.259Z,17.20
2018-05-01T15:40:41.535Z,17.10
2018-05-01T15:43:09.771Z,17.10
2018-05-01T15:45:37.975Z,16.80
2018-05-01T15:48:06.350Z,17.20
2018-05-01T15:50:34.539Z,17.20
2018-05-01T15:53:02.743Z,17.40
2018-05-01T15:55:31.831Z,17.40
2018-05-01T15:58:00.012Z,17.40
2018-05-01T16:00:28.999Z,17.60
2018-05-01T16:02:57.229Z,17.60
2018-05-01T16:05:25.434Z,17.90
2018-05-01T16:07:53.647Z,18.40
2018-05-01T16:10:22.623Z,19.10
2018-05-01T16:12:50.805Z,19.00
2018-05-01T16:15:19.877Z,19.00
2018-05-01T16:17:48.108Z,18.90
2018-05-01T16:20:16.299Z,18.40
2018-05-01T16:22:44.531Z,18.20
2018-05-01T16:25:13.487Z,18.30
2018-05-01T16:27:42.043Z,18.20
2018-05-01T16:30:10.279Z,18.60
2018-05-01T16:32:39.375Z,19.40
2018-05-01T16:35:08.411Z,19.10
2018-05-01T16:37:36.707Z,19.10
2018-05-01T16:40:04.903Z,18.60
2018-05-01T16:42:33.115Z,17.90
2018-05-01T16:45:01.343Z,17.50
2018-05-01T16:47:29.583Z,17.20
2018-05-01T16:49:57.785Z,17.00
2018-05-01T16:52:25.987Z,16.90
2018-05-01T16:54:54.996Z,17.30
2018-05-01T16:57:23.218Z,17.30
2018-05-01T16:59:51.455Z,17.20
2018-05-01T17:02:20.492Z,17.20
2018-05-01T17:04:48.763Z,17.20
2018-05-01T17:07:16.967Z,17.20
2018-05-01T17:09:45.193Z,17.40
2018-05-01T17:12:13.387Z,17.40
2018-05-01T17:14:41.779Z,16.80
2018-05-01T17:17:09.968Z,16.80
2018-05-01T17:19:38.158Z,16.70
2018-05-01T17:22:07.198Z,16.30
2018-05-01T17:24:35.387Z,16.20
2018-05-01T17:27:03.583Z,16.10
2018-05-01T17:29:31.861Z,16.30
2018-05-01T17:32:01.959Z,16.20
2018-05-01T17:34:30.255Z,15.80
2018-05-01T17:36:58.512Z,15.60
2018-05-01T17:39:26.759Z,15.50
2018-05-01T17:41:55.055Z,15.30
2018-05-01T17:44:23.366Z,14.80
2018-05-01T17:46:51.603Z,14.90
2018-05-01T17:49:19.794Z,15.00
2018-05-01T17:51:48.532Z,14.90
2018-05-01T17:54:16.726Z,14.80
2018-05-01T17:56:44.948Z,14.90
2018-05-01T17:59:13.161Z,14.70
2018-05-01T18:01:41.429Z,14.80
2018-05-01T18:04:10.406Z,14.50
2018-05-01T18:06:39.419Z,14.50
2018-05-01T18:09:07.623Z,14.40
2018-05-01T18:11:36.831Z,14.40
2018-05-01T18:14:05.083Z,14.40
2018-05-01T18:16:33.312Z,14.40
2018-05-01T18:19:01.503Z,14.30
2018-05-01T18:21:30.675Z,14.20
2018-05-01T18:23:58.877Z,14.20
2018-05-01T18:26:27.913Z,13.80
2018-05-01T18:28:56.115Z,13.80
2018-05-01T18:31:24.507Z,13.80
2018-05-01T18:33:52.696Z,13.80
2018-05-01T18:36:21.751Z,13.80
2018-05-01T18:38:50.013Z,13.80
2018-05-01T18:41:18.251Z,13.70
2018-05-01T18:43:46.571Z,13.60
2018-05-01T18:46:14.760Z,13.60
2018-05-01T18:48:43.059Z,13.50
2018-05-01T18:51:12.901Z,13.40
2018-05-01T18:53:41.081Z,13.40
2018-05-01T18:56:09.293Z,13.40
2018-05-01T18:58:37.535Z,13.30
2018-05-01T19:01:05.719Z,13.30
2018-05-01T19:03:33.951Z,13.10
2018-05-01T19:06:02.308Z,13.10
2018-05-01T19:08:30.635Z,13.00
2018-05-01T19:10:58.942Z,12.80
2018-05-01T19:13:27.249Z,12.90
2018-05-01T19:15:55.435Z,12.70
2018-05-01T19:18:24.390Z,12.60
2018-05-01T19:20:52.614Z,12.60
2018-05-01T19:23:21.828Z,12.60
2018-05-01T19:25:50.767Z,12.40
2018-05-01T19:28:19.155Z,12.40
2018-05-01T19:30:47.359Z,12.30
2018-05-01T19:33:16.325Z,12.00
2018-05-01T19:35:45.956Z,11.90
2018-05-01T19:38:15.947Z,12.00
2018-05-01T19:40:44.147Z,12.00
2018-05-01T19:43:12.351Z,11.90
2018-05-01T19:45:40.543Z,11.70
2018-05-01T19:48:09.165Z,11.70
2018-05-01T19:50:38.191Z,11.70
2018-05-01T19:53:06.483Z,11.70
2018-05-01T19:55:34.702Z,11.70
2018-05-01T19:58:02.954Z,11.40
2018-05-01T20:00:31.179Z,11.40
2018-05-01T20:02:59.352Z,11.40
2018-05-01T20:05:28.730Z,11.40
2018-05-01T20:07:56.994Z,11.40
2018-05-01T20:10:25.919Z,11.30
2018-05-01T20:12:55.064Z,11.30
2018-05-01T20:15:23.267Z,11.30
2018-05-01T20:17:51.582Z,11.10
2018-05-01T20:20:20.738Z,11.10
2018-05-01T20:22:49.011Z,11.10
2018-05-01T20:25:17.332Z,11.10
2018-05-01T20:27:46.335Z,11.00
2018-05-01T20:30:14.578Z,11.00
2018-05-01T20:32:42.803Z,11.00
2018-05-01T20:35:11.022Z,10.90
2018-05-01T20:37:41.682Z,10.70
2018-05-01T20:40:10.766Z,10.70
2018-05-01T20:42:39.792Z,10.70
2018-05-01T20:45:08.013Z,10.60
2018-05-01T20:47:36.750Z,10.50
2018-05-01T20:50:05.832Z,10.40
2018-05-01T20:52:34.827Z,10.20
2018-05-01T20:55:03.704Z,10.20
2018-05-01T20:57:31.867Z,10.30
2018-05-01T21:00:00.905Z,9.90
2018-05-01T21:02:29.152Z,9.80
2018-05-01T21:04:57.924Z,9.80
2018-05-01T21:07:27.427Z,9.90
2018-05-01T21:09:55.702Z,9.90
2018-05-01T21:12:24.702Z,9.80
2018-05-01T21:14:53.098Z,9.90
2018-05-01T21:17:22.096Z,9.80
2018-05-01T21:19:50.310Z,9.80
2018-05-01T21:22:18.556Z,9.70
2018-05-01T21:24:46.796Z,9.60
2018-05-01T21:27:15.073Z,9.50
2018-05-01T21:29:43.262Z,9.40
2018-05-01T21:32:12.239Z,9.20
2018-05-01T21:34:40.451Z,9.20
2018-05-01T21:37:08.635Z,9.20
2018-05-01T21:39:36.915Z,9.20
2018-05-01T21:42:05.283Z,9.30
2018-05-01T21:44:33.467Z,9.10
2018-05-01T21:47:01.735Z,9.00
2018-05-01T21:49:29.987Z,8.90
2018-05-01T21:51:58.983Z,8.90
2018-05-01T21:54:27.175Z,8.90
2018-05-01T21:56:55.580Z,8.90
2018-05-01T21:59:23.804Z,8.70
2018-05-01T22:01:52.758Z,8.60
2018-05-01T22:04:21.110Z,8.60
2018-05-01T22:06:49.355Z,8.60
2018-05-01T22:09:18.365Z,8.70
2018-05-01T22:11:46.647Z,8.60
2018-05-01T22:14:14.831Z,8.50
2018-05-01T22:16:43.016Z,8.40
2018-05-01T22:19:11.486Z,8.30
2018-05-01T22:21:39.670Z,8.20
2018-05-01T22:24:07.924Z,8.20
2018-05-01T22:26:36.324Z,8.20
2018-05-01T22:29:04.570Z,8.20
2018-05-01T22:31:32.723Z,8.20
2018-05-01T22:34:01.000Z,8.10
2018-05-01T22:36:29.259Z,8.20
2018-05-01T22:38:57.450Z,8.10
2018-05-01T22:41:25.710Z,8.20
2018-05-01T22:43:54.010Z,8.00
2018-05-01T22:46:22.955Z,8.00
2018-05-01T22:48:51.339Z,8.00
2018-05-01T22:51:19.566Z,8.00
2018-05-01T22:53:48.555Z,7.80
2018-05-01T22:56:17.583Z,7.80
2018-05-01T22:58:45.791Z,7.70
2018-05-01T23:01:13.982Z,7.70
2018-05-01T23:03:42.213Z,7.60
2018-05-01T23:06:10.382Z,7.70
2018-05-01T23:08:38.578Z,7.60
2018-05-01T23:11:09.468Z,7.60
2018-05-01T23:13:37.651Z,7.60
2018-05-01T23:16:05.891Z,7.40
2018-05-01T23:18:34.629Z,7.40
2018-05-01T23:21:03.804Z,7.30
2018-05-01T23:23:33.003Z,7.00
2018-05-01T23:26:01.204Z,7.00
2018-05-01T23:28:29.915Z,6.90
2018-05-01T23:30:58.590Z,7.00
2018-05-01T23:33:29.371Z,7.10
2018-05-01T23:35:58.121Z,7.10
2018-05-01T23:38:26.764Z,7.10
2018-05-01T23:40:55.103Z,7.00
2018-05-01T23:43:24.433Z,6.70
2018-05-01T23:45:53.111Z,6.60
2018-05-01T23:48:22.450Z,6.80
2018-05-01T23:50:50.739Z,6.70
2018-05-01T23:53:19.163Z,6.80
2018-05-01T23:55:48.268Z,6.80
2018-05-01T23:58:17.300Z,6.60
